Time;durP1;ratioP1;P1;durP2;ratioP2;P2;SDS_P1;SDS_P2;PMS_P1;PMS_P2;Temp;Humidity;BMP_temperature;BMP_pressure;BME280_temperature;BME280_humidity;BME280_pressure;Samples;Min_cycle;Max_cycle;Signal;HPM_P1;HPM_P2
2021/05/04 00:02:31;;;;;;;3.20;2.40;;;16.90;99.90;;;;;;5128456;27;20510;-34
2021/05/04 00:05:01;;;;;;;3.00;2.70;;;16.90;99.90;;;;;;5139170;27;20445;-34
2021/05/04 00:07:31;;;;;;;4.97;2.47;;;17.00;99.90;;;;;;5131039;27;20445;-34
2021/05/04 00:10:01;;;;;;;4.20;2.00;;;17.00;99.90;;;;;;5127664;27;20861;-34
2021/05/04 00:12:31;;;;;;;4.00;2.27;;;17.00;99.90;;;;;;5127031;27;20454;-34
2021/05/04 00:15:02;;;;;;;2.53;2.33;;;17.00;99.90;;;;;;5126810;27;20515;-35
2021/05/04 00:17:33;;;;;;;2.70;2.20;;;17.00;99.90;;;;;;5137279;27;20438;-35
2021/05/04 00:20:03;;;;;;;3.17;2.87;;;17.00;99.90;;;;;;5125784;27;20486;-35
2021/05/04 00:22:33;;;;;;;2.50;2.30;;;17.20;99.90;;;;;;5125966;27;20557;-34
2021/05/04 00:25:04;;;;;;;2.90;2.50;;;17.20;99.90;;;;;;5139331;27;20568;-34
2021/05/04 00:27:34;;;;;;;3.00;2.70;;;17.20;99.90;;;;;;5124289;28;20980;-34
2021/05/04 00:30:06;;;;;;;2.70;2.50;;;16.90;99.90;;;;;;5133237;27;20460;-34
2021/05/04 00:32:37;;;;;;;2.93;2.63;;;16.90;99.90;;;;;;5144286;27;20423;-34
2021/05/04 00:35:08;;;;;;;3.50;3.13;;;17.00;99.90;;;;;;5143669;27;20531;-34
2021/05/04 00:37:38;;;;;;;3.73;2.80;;;17.00;99.90;;;;;;5134958;27;20468;-34
2021/05/04 00:40:09;;;;;;;3.07;2.87;;;17.00;99.90;;;;;;5142999;27;20737;-35
2021/05/04 00:42:40;;;;;;;2.70;2.50;;;17.00;99.90;;;;;;5140453;27;20505;-35
2021/05/04 00:45:22;;;;;;;3.07;2.87;;;17.00;99.90;;;;;;5145643;27;21933;-34
2021/05/04 00:47:53;;;;;;;4.37;3.00;;;16.80;99.90;;;;;;5142587;27;20441;-35
2021/05/04 00:50:23;;;;;;;3.87;2.83;;;16.80;99.90;;;;;;5144923;27;20480;-35
2021/05/04 00:52:53;;;;;;;3.30;2.90;;;16.60;99.90;;;;;;5145684;27;20449;-34
2021/05/04 00:55:27;;;;;;;3.53;3.23;;;16.60;99.90;;;;;;5145446;27;20456;-35
2021/05/04 00:57:57;;;;;;;3.43;2.70;;;16.50;99.90;;;;;;5144545;27;20472;-34
2021/05/04 01:00:28;;;;;;;3.37;3.10;;;16.60;99.90;;;;;;5128878;27;20498;-34
2021/05/04 01:02:59;;;;;;;3.40;3.00;;;16.60;99.90;;;;;;5145351;27;20472;-34
2021/05/04 01:05:30;;;;;;;3.13;2.60;;;16.60;99.90;;;;;;5144195;27;20529;-34
2021/05/04 01:08:00;;;;;;;4.80;3.30;;;16.50;99.90;;;;;;5145071;27;20494;-34
2021/05/04 01:10:30;;;;;;;3.70;3.40;;;16.40;99.90;;;;;;5144014;27;20482;-34
2021/05/04 01:13:00;;;;;;;3.30;3.00;;;16.40;99.90;;;;;;5141004;27;20502;-33
2021/05/04 01:15:30;;;;;;;4.20;3.10;;;16.30;99.90;;;;;;5144429;27;20509;-34
2021/05/04 01:18:01;;;;;;;3.53;3.17;;;16.40;99.90;;;;;;5145927;27;20497;-34
2021/05/04 01:20:32;;;;;;;3.63;3.33;;;16.40;99.90;;;;;;5145361;27;20452;-34
2021/05/04 01:23:03;;;;;;;5.03;3.10;;;16.40;99.90;;;;;;5144947;27;20484;-34
2021/05/04 01:25:33;;;;;;;3.63;3.33;;;16.30;99.90;;;;;;5145210;27;20452;-34
2021/05/04 01:28:04;;;;;;;3.60;3.00;;;16.30;99.90;;;;;;5143862;27;20449;-35
2021/05/04 01:30:34;;;;;;;3.40;3.10;;;16.30;99.90;;;;;;5145101;27;20445;-35
2021/05/04 01:33:04;;;;;;;4.17;3.40;;;16.30;99.90;;;;;;5144572;27;20502;-35
2021/05/04 01:35:34;;;;;;;3.80;3.30;;;16.10;99.90;;;;;;5143279;27;20453;-35
2021/05/04 01:38:05;;;;;;;4.33;3.27;;;16.00;99.90;;;;;;5143905;27;20509;-35
2021/05/04 01:40:35;;;;;;;3.47;3.10;;;16.00;99.90;;;;;;5143799;27;20452;-35
2021/05/04 01:43:24;;;;;;;3.60;3.30;;;16.00;99.90;;;;;;5142756;27;20514;-34
2021/05/04 01:45:54;;;;;;;4.10;3.37;;;15.90;99.90;;;;;;5144933;27;20467;-34
2021/05/04 01:48:24;;;;;;;3.23;2.93;;;15.80;99.90;;;;;;5145353;27;20680;-35
2021/05/04 01:50:55;;;;;;;4.67;2.87;;;15.90;99.90;;;;;;5143915;27;20459;-34
2021/05/04 01:53:26;;;;;;;3.80;3.27;;;15.80;99.90;;;;;;5143092;27;20449;-34
2021/05/04 01:55:56;;;;;;;4.87;3.50;;;15.80;99.90;;;;;;5143793;27;20567;-34
2021/05/04 01:58:26;;;;;;;5.03;4.63;;;15.80;99.90;;;;;;5143405;27;20445;-34
2021/05/04 02:00:56;;;;;;;5.77;4.83;;;15.70;99.90;;;;;;5144410;27;20548;-34
2021/05/04 02:03:26;;;;;;;4.47;4.13;;;15.70;99.90;;;;;;5143781;27;20513;-34
2021/05/04 02:05:56;;;;;;;4.00;3.60;;;15.60;99.90;;;;;;5141986;27;20453;-34
2021/05/04 02:08:28;;;;;;;4.00;3.37;;;15.60;99.90;;;;;;5141891;27;20838;-34
2021/05/04 02:10:58;;;;;;;3.50;3.30;;;15.60;99.90;;;;;;5144872;27;20449;-34
2021/05/04 02:13:28;;;;;;;4.10;3.70;;;15.60;99.90;;;;;;5142985;27;20490;-33
2021/05/04 02:15:58;;;;;;;3.77;3.40;;;15.50;99.90;;;;;;5143520;27;20445;-34
2021/05/04 02:18:28;;;;;;;6.47;3.77;;;15.40;99.90;;;;;;5144532;27;20448;-34
2021/05/04 02:20:58;;;;;;;3.70;3.40;;;15.40;99.90;;;;;;5147117;27;20471;-34
2021/05/04 02:23:31;;;;;;;3.43;3.13;;;15.30;99.90;;;;;;5142987;27;20540;-34
2021/05/04 02:26:01;;;;;;;6.40;3.63;;;15.30;99.90;;;;;;5143293;27;22256;-34
2021/05/04 02:28:31;;;;;;;4.63;4.10;;;15.30;99.90;;;;;;5143065;27;20458;-34
2021/05/04 02:31:01;;;;;;;3.63;3.30;;;15.20;99.90;;;;;;5140111;27;20478;-35
2021/05/04 02:33:31;;;;;;;4.93;3.57;;;15.20;99.90;;;;;;5143790;27;20456;-34
2021/05/04 02:36:01;;;;;;;3.67;3.37;;;15.20;99.90;;;;;;5143572;27;20476;-34
2021/05/04 02:38:33;;;;;;;5.20;4.70;;;15.20;99.90;;;;;;5143105;28;20453;-34
2021/05/04 02:41:05;;;;;;;4.30;3.67;;;15.20;99.90;;;;;;5144427;28;20448;-33
2021/05/04 02:43:36;;;;;;;4.30;4.00;;;15.10;99.90;;;;;;5138451;28;20492;-34
2021/05/04 02:46:25;;;;;;;4.20;3.90;;;15.00;99.90;;;;;;5143150;28;20470;-34
2021/05/04 02:48:55;;;;;;;3.77;3.40;;;15.00;99.90;;;;;;5144195;28;20456;-34
2021/05/04 02:51:25;;;;;;;4.00;3.70;;;14.90;99.90;;;;;;5143266;28;20445;-35
2021/05/04 02:53:56;;;;;;;4.10;3.80;;;14.90;99.90;;;;;;5144329;28;21001;-35
2021/05/04 02:56:28;;;;;;;3.83;3.53;;;14.90;99.90;;;;;;5126811;28;20952;-34
2021/05/04 02:58:58;;;;;;;4.10;3.77;;;14.90;99.90;;;;;;5144893;28;20440;-35
2021/05/04 03:01:28;;;;;;;4.80;4.40;;;14.80;99.90;;;;;;5143058;28;20444;-34
2021/05/04 03:03:58;;;;;;;5.07;4.57;;;14.80;99.90;;;;;;5142902;27;20517;-35
2021/05/04 03:06:28;;;;;;;5.00;4.70;;;14.70;99.90;;;;;;5141775;27;20948;-35
2021/05/04 03:08:59;;;;;;;5.13;4.27;;;14.80;99.90;;;;;;5144713;27;20459;-34
2021/05/04 03:11:29;;;;;;;4.43;3.77;;;14.80;99.90;;;;;;5142816;28;20463;-34
2021/05/04 03:13:59;;;;;;;4.10;3.80;;;14.80;99.90;;;;;;5144287;28;20504;-34
2021/05/04 03:16:29;;;;;;;5.17;4.60;;;14.70;99.90;;;;;;5144002;27;20485;-34
2021/05/04 03:18:59;;;;;;;5.20;4.70;;;14.70;99.90;;;;;;5143634;28;20448;-35
2021/05/04 03:21:30;;;;;;;5.40;4.87;;;14.70;99.90;;;;;;5143717;28;20453;-34
2021/05/04 03:24:01;;;;;;;5.30;4.47;;;14.70;99.90;;;;;;5143622;28;20473;-34
2021/05/04 03:26:31;;;;;;;4.60;4.20;;;14.60;99.90;;;;;;5143907;27;20448;-34
2021/05/04 03:29:01;;;;;;;4.77;4.37;;;14.70;99.90;;;;;;5145928;27;20968;-35
2021/05/04 03:31:31;;;;;;;5.67;5.17;;;14.70;99.90;;;;;;5148380;27;20492;-35
2021/05/04 03:34:01;;;;;;;5.57;5.00;;;14.70;99.90;;;;;;5147767;27;20464;-35
2021/05/04 03:36:31;;;;;;;5.80;5.27;;;14.60;99.90;;;;;;5147382;27;20452;-35
2021/05/04 03:39:02;;;;;;;5.43;4.93;;;14.60;99.90;;;;;;5148168;27;20440;-35
2021/05/04 03:41:33;;;;;;;5.33;4.87;;;14.70;99.90;;;;;;5146647;27;20444;-35
2021/05/04 03:44:04;;;;;;;6.10;5.60;;;14.70;99.90;;;;;;5146549;27;20480;-35
2021/05/04 03:46:34;;;;;;;5.67;5.17;;;14.60;99.90;;;;;;5129072;27;20993;-35
2021/05/04 03:49:05;;;;;;;5.87;5.30;;;14.60;99.90;;;;;;5145177;27;20440;-34
2021/05/04 03:51:35;;;;;;;5.90;5.50;;;14.50;99.90;;;;;;5147523;27;20460;-34
2021/05/04 03:54:06;;;;;;;7.00;6.33;;;14.50;99.90;;;;;;5147352;27;20448;-34
2021/05/04 03:56:36;;;;;;;7.00;6.30;;;14.50;99.90;;;;;;5143560;27;20781;-34
2021/05/04 03:59:06;;;;;;;8.40;5.73;;;14.50;99.90;;;;;;5145183;27;20448;-34
2021/05/04 04:01:36;;;;;;;7.07;6.40;;;14.60;99.90;;;;;;5146555;27;20452;-34
2021/05/04 04:04:07;;;;;;;7.27;6.57;;;14.60;99.90;;;;;;5142143;27;20480;-33
2021/05/04 04:06:37;;;;;;;7.03;6.37;;;14.50;99.90;;;;;;5145322;27;20452;-33
2021/05/04 04:09:08;;;;;;;8.60;6.67;;;14.50;99.90;;;;;;5146574;27;20511;-32
2021/05/04 04:11:39;;;;;;;9.40;7.83;;;14.50;99.90;;;;;;5144108;27;20966;-34
2021/05/04 04:14:09;;;;;;;8.00;7.30;;;14.50;99.90;;;;;;5146579;27;20805;-33
2021/05/04 04:16:39;;;;;;;6.90;6.30;;;14.50;99.90;;;;;;5146078;27;20457;-34
2021/05/04 04:19:09;;;;;;;7.40;6.63;;;14.60;99.90;;;;;;5146895;27;20879;-34
2021/05/04 04:21:39;;;;;;;8.73;6.23;;;14.50;99.90;;;;;;5146174;27;20453;-34
2021/05/04 04:24:11;;;;;;;7.50;6.80;;;14.50;99.90;;;;;;5146246;27;20595;-34
2021/05/04 04:26:41;;;;;;;7.23;6.53;;;14.50;99.90;;;;;;5145436;27;20478;-35
2021/05/04 04:29:12;;;;;;;7.40;6.80;;;14.50;99.90;;;;;;5145877;27;20466;-35
2021/05/04 04:31:42;;;;;;;6.97;6.27;;;14.40;99.90;;;;;;5145466;27;20448;-34
2021/05/04 04:34:12;;;;;;;7.47;6.50;;;14.40;99.90;;;;;;5145712;27;20951;-34
2021/05/04 04:36:42;;;;;;;6.67;6.17;;;14.50;99.90;;;;;;5145881;27;20433;-34
2021/05/04 04:39:14;;;;;;;7.77;7.10;;;14.40;99.90;;;;;;5147115;27;20452;-34
2021/05/04 04:41:44;;;;;;;7.03;6.43;;;14.40;99.90;;;;;;5142389;27;20476;-33
2021/05/04 04:44:15;;;;;;;7.63;6.90;;;14.40;99.90;;;;;;5139428;27;20887;-35
2021/05/04 04:46:45;;;;;;;7.20;6.60;;;14.40;99.90;;;;;;5144816;27;20460;-34
2021/05/04 04:49:16;;;;;;;7.00;6.40;;;14.30;99.90;;;;;;5146678;27;20449;-34
2021/05/04 04:51:48;;;;;;;7.20;6.50;;;14.40;99.90;;;;;;5146096;27;20457;-34
2021/05/04 04:54:19;;;;;;;9.20;7.10;;;14.40;99.90;;;;;;5146329;27;20936;-35
2021/05/04 04:56:49;;;;;;;7.73;6.90;;;14.40;99.90;;;;;;5144139;27;20445;-34
2021/05/04 04:59:19;;;;;;;6.83;6.20;;;14.40;99.90;;;;;;5145640;27;20511;-34
2021/05/04 05:01:49;;;;;;;7.27;6.60;;;14.50;99.90;;;;;;5144404;27;20452;-34
2021/05/04 05:04:19;;;;;;;8.03;7.10;;;14.40;99.90;;;;;;5145753;27;20480;-33
2021/05/04 05:06:49;;;;;;;7.37;6.77;;;14.30;99.90;;;;;;5143865;27;20456;-34
2021/05/04 05:09:21;;;;;;;6.53;5.93;;;14.40;99.90;;;;;;5145543;27;20449;-34
2021/05/04 05:11:51;;;;;;;6.37;5.67;;;14.30;99.90;;;;;;5142963;27;20437;-34
2021/05/04 05:14:21;;;;;;;6.30;5.70;;;14.30;99.90;;;;;;5145284;27;20461;-33
2021/05/04 05:16:51;;;;;;;5.57;5.10;;;14.30;99.90;;;;;;5143814;27;20470;-33
2021/05/04 05:19:21;;;;;;;5.63;5.13;;;14.30;99.90;;;;;;5145191;27;20441;-33
2021/05/04 05:21:51;;;;;;;6.43;5.93;;;14.20;99.90;;;;;;5143810;27;20436;-34
2021/05/04 05:24:22;;;;;;;5.90;5.37;;;14.20;99.90;;;;;;5144885;27;20487;-33
2021/05/04 05:26:52;;;;;;;5.77;5.37;;;14.20;99.90;;;;;;5144264;27;20533;-33
2021/05/04 05:29:23;;;;;;;6.70;6.20;;;14.10;99.90;;;;;;5144452;27;20956;-33
2021/05/04 05:31:53;;;;;;;6.60;6.00;;;14.10;99.90;;;;;;5142595;27;20509;-33
2021/05/04 05:34:23;;;;;;;6.70;6.10;;;14.20;99.90;;;;;;5145047;27;20479;-33
2021/05/04 05:36:53;;;;;;;6.30;5.90;;;14.10;99.90;;;;;;5144023;27;20433;-33
2021/05/04 05:39:24;;;;;;;7.57;6.70;;;14.20;99.90;;;;;;5144506;27;20449;-33
2021/05/04 05:41:54;;;;;;;11.53;7.27;;;14.30;99.90;;;;;;5143693;27;20476;-33
2021/05/04 05:44:25;;;;;;;6.53;5.90;;;14.30;99.90;;;;;;5144902;27;20480;-33
2021/05/04 05:46:55;;;;;;;7.30;6.80;;;14.20;99.90;;;;;;5143795;27;20456;-33
2021/05/04 05:49:26;;;;;;;8.20;7.50;;;14.20;99.90;;;;;;5145080;27;20567;-33
2021/05/04 05:51:56;;;;;;;8.90;8.10;;;14.10;99.90;;;;;;5142953;27;20575;-34
2021/05/04 05:54:27;;;;;;;8.83;8.13;;;14.10;99.90;;;;;;5144520;27;20514;-33
2021/05/04 05:56:58;;;;;;;8.83;8.13;;;14.10;99.90;;;;;;5128962;27;20508;-33
2021/05/04 05:59:28;;;;;;;9.33;8.60;;;14.10;99.90;;;;;;5144749;27;20449;-33
2021/05/04 06:01:59;;;;;;;9.97;9.07;;;14.10;99.90;;;;;;5144216;27;20505;-33
2021/05/04 06:04:29;;;;;;;10.87;9.87;;;14.20;99.90;;;;;;5144202;27;20502;-34
2021/05/04 06:06:59;;;;;;;10.27;9.37;;;14.10;99.90;;;;;;5143599;27;21013;-33
2021/05/04 06:09:30;;;;;;;9.23;8.40;;;14.20;99.90;;;;;;5137529;27;20449;-33
2021/05/04 06:12:00;;;;;;;9.73;8.70;;;14.10;99.90;;;;;;5143553;27;20467;-33
2021/05/04 06:14:31;;;;;;;10.43;9.53;;;14.00;99.90;;;;;;5144169;27;20453;-33
2021/05/04 06:17:01;;;;;;;11.30;10.30;;;14.00;99.90;;;;;;5144093;27;20462;-33
2021/05/04 06:19:31;;;;;;;11.40;10.43;;;14.00;99.90;;;;;;5144643;27;20489;-33
2021/05/04 06:22:02;;;;;;;10.87;9.87;;;14.00;99.90;;;;;;5143265;27;20440;-33
2021/05/04 06:24:33;;;;;;;11.97;10.93;;;13.90;99.90;;;;;;5143807;27;20498;-33
2021/05/04 06:27:03;;;;;;;12.13;11.03;;;14.00;99.90;;;;;;5138797;27;20479;-33
2021/05/04 06:29:33;;;;;;;10.07;9.20;;;13.90;99.90;;;;;;5143772;27;20445;-34
2021/05/04 06:32:09;;;;;;;11.47;10.37;;;13.90;99.90;;;;;;5144475;27;20434;-33
2021/05/04 06:34:40;;;;;;;11.67;10.70;;;14.00;99.90;;;;;;5144197;27;20576;-33
2021/05/04 06:37:10;;;;;;;10.47;9.57;;;14.00;99.90;;;;;;5144126;27;20449;-33
2021/05/04 06:39:42;;;;;;;12.27;11.23;;;14.00;99.90;;;;;;5144225;27;20482;-33
2021/05/04 06:42:12;;;;;;;11.97;10.87;;;14.00;99.90;;;;;;5143057;28;20513;-34
2021/05/04 06:45:00;;;;;;;12.23;11.03;;;14.00;99.90;;;;;;5144038;28;20556;-33
2021/05/04 06:47:31;;;;;;;12.73;11.60;;;14.00;99.90;;;;;;5143682;28;20444;-33
2021/05/04 06:50:01;;;;;;;11.87;10.87;;;14.10;99.90;;;;;;5142262;28;20516;-33
2021/05/04 06:52:34;;;;;;;12.70;11.57;;;14.10;99.90;;;;;;5142725;28;20956;-33
2021/05/04 06:55:07;;;;;;;13.33;12.13;;;14.00;99.90;;;;;;5144090;28;20506;-33
2021/05/04 06:57:37;;;;;;;14.23;12.90;;;14.00;99.90;;;;;;5142862;28;20449;-33
2021/05/04 07:00:08;;;;;;;13.33;12.10;;;14.00;99.90;;;;;;5143957;28;20442;-33
2021/05/04 07:02:39;;;;;;;12.87;11.77;;;14.00;99.90;;;;;;5143578;27;20466;-33
2021/05/04 07:05:11;;;;;;;13.07;12.07;;;14.10;99.90;;;;;;5147373;27;20508;-33
2021/05/04 07:07:41;;;;;;;13.30;12.10;;;14.10;99.90;;;;;;5147058;27;20542;-34
2021/05/04 07:10:13;;;;;;;12.43;11.43;;;14.10;99.90;;;;;;5148202;27;20445;-33
2021/05/04 07:12:44;;;;;;;15.00;13.50;;;14.10;99.90;;;;;;5147025;27;20452;-33
2021/05/04 07:15:15;;;;;;;14.70;13.53;;;14.10;99.90;;;;;;5147621;27;20460;-33
2021/05/04 07:17:45;;;;;;;13.30;12.20;;;14.10;99.90;;;;;;5147858;27;20534;-33
2021/05/04 07:20:20;;;;;;;13.93;12.83;;;14.00;99.90;;;;;;5148295;27;20444;-33
2021/05/04 07:22:54;;;;;;;15.23;13.93;;;14.10;99.90;;;;;;5146706;27;20555;-33
2021/05/04 07:25:26;;;;;;;14.20;13.00;;;14.10;99.90;;;;;;5147836;27;20456;-33
2021/05/04 07:27:57;;;;;;;15.03;13.60;;;14.10;99.90;;;;;;5146988;27;20475;-33
2021/05/04 07:30:27;;;;;;;15.53;14.13;;;14.10;99.90;;;;;;5146575;27;20482;-33
2021/05/04 07:32:57;;;;;;;15.60;14.10;;;14.20;99.90;;;;;;5147477;27;20514;-34
2021/05/04 07:35:28;;;;;;;16.60;15.20;;;14.10;99.90;;;;;;5147261;27;20501;-38
2021/05/04 07:37:58;;;;;;;16.37;14.97;;;14.10;99.90;;;;;;5146916;27;20452;-33
2021/05/04 07:40:31;;;;;;;16.50;15.00;;;14.10;99.90;;;;;;5147973;27;20896;-35
2021/05/04 07:43:01;;;;;;;17.40;15.90;;;14.00;99.90;;;;;;5146282;27;20480;-33
2021/05/04 07:45:31;;;;;;;19.27;17.27;;;14.00;99.90;;;;;;5147309;27;20433;-34
2021/05/04 07:48:03;;;;;;;16.17;14.77;;;14.00;99.90;;;;;;5147739;27;20477;-34
2021/05/04 07:50:33;;;;;;;19.13;17.43;;;14.00;99.90;;;;;;5146438;27;20506;-34
2021/05/04 07:53:03;;;;;;;18.37;16.60;;;14.00;99.90;;;;;;5146709;27;20453;-34
2021/05/04 07:55:34;;;;;;;17.90;16.40;;;14.00;99.90;;;;;;5147506;27;20505;-34
2021/05/04 07:58:05;;;;;;;18.83;16.90;;;14.00;99.90;;;;;;5145708;27;20474;-34
2021/05/04 08:00:38;;;;;;;18.37;16.87;;;14.00;99.90;;;;;;5147011;27;20568;-34
2021/05/04 08:03:09;;;;;;;18.30;16.63;;;14.00;99.90;;;;;;5146394;27;20820;-34
2021/05/04 08:05:39;;;;;;;19.63;17.93;;;14.00;99.90;;;;;;5146554;27;20456;-34
2021/05/04 08:08:12;;;;;;;18.73;17.03;;;14.00;99.90;;;;;;5146228;27;20444;-34
2021/05/04 08:10:43;;;;;;;16.57;14.97;;;14.00;99.90;;;;;;5147155;27;20456;-34
2021/05/04 08:13:13;;;;;;;15.83;14.53;;;14.00;99.90;;;;;;5145644;27;20503;-33
2021/05/04 08:15:43;;;;;;;16.57;15.07;;;13.90;99.90;;;;;;5146396;27;20437;-33
2021/05/04 08:18:15;;;;;;;17.40;15.60;;;13.80;99.90;;;;;;5146963;27;20460;-34
2021/05/04 08:20:48;;;;;;;16.20;14.70;;;13.80;99.90;;;;;;5145253;27;20452;-34
2021/05/04 08:23:19;;;;;;;14.77;13.47;;;13.80;99.90;;;;;;5146477;27;20492;-33
2021/05/04 08:25:50;;;;;;;16.43;15.13;;;13.80;99.90;;;;;;5146677;27;20445;-34
2021/05/04 08:28:20;;;;;;;15.97;14.53;;;13.80;99.90;;;;;;5144933;27;20533;-34
2021/05/04 08:30:51;;;;;;;15.13;13.83;;;13.80;99.90;;;;;;5147051;27;20444;-34
2021/05/04 08:33:22;;;;;;;13.87;12.63;;;13.80;99.90;;;;;;5146556;27;20810;-34
2021/05/04 08:35:52;;;;;;;17.20;15.53;;;13.80;99.90;;;;;;5146505;27;20452;-34
2021/05/04 08:38:22;;;;;;;15.33;13.93;;;13.90;99.90;;;;;;5145995;27;20449;-34
2021/05/04 08:40:53;;;;;;;15.80;14.40;;;13.90;99.90;;;;;;5146398;27;20501;-34
2021/05/04 08:44:01;;;;;;;15.77;14.47;;;13.90;99.90;;;;;;5145167;27;20513;-33
2021/05/04 08:46:35;;;;;;;14.03;12.73;;;13.80;99.90;;;;;;5145799;27;20469;-33
2021/05/04 08:49:06;;;;;;;14.63;13.43;;;13.80;99.90;;;;;;5130197;27;20588;-34
2021/05/04 08:51:37;;;;;;;14.33;13.10;;;13.80;99.90;;;;;;5144727;27;20445;-34
2021/05/04 08:54:07;;;;;;;13.87;12.57;;;13.80;99.90;;;;;;5142689;27;20460;-34
2021/05/04 08:56:40;;;;;;;15.87;14.47;;;13.90;99.90;;;;;;5144136;27;20520;-34
2021/05/04 08:59:11;;;;;;;16.30;14.67;;;13.90;99.90;;;;;;5135056;27;20798;-34
2021/05/04 09:01:43;;;;;;;16.57;14.97;;;13.90;99.90;;;;;;5145344;27;20437;-33
2021/05/04 09:04:36;;;;;;;14.80;13.50;;;13.90;99.90;;;;;;5145764;27;20472;-34
2021/05/04 09:07:20;;;;;;;15.87;14.40;;;13.90;99.90;;;;;;5145586;27;20473;-34
2021/05/04 09:10:10;;;;;;;15.40;14.00;;;13.90;99.90;;;;;;5145762;27;20448;-34
2021/05/04 09:12:42;;;;;;;14.57;13.27;;;13.90;99.90;;;;;;5142817;27;20441;-34
2021/05/04 09:15:49;;;;;;;10.63;9.63;;;13.80;99.90;;;;;;5145155;27;20449;-33
2021/05/04 09:19:04;;;;;;;9.13;8.30;;;13.80;99.90;;;;;;5145034;27;20513;-33
2021/05/04 09:21:33;;;;;;;9.20;8.30;;;13.80;99.90;;;;;;5136926;27;20456;-33
2021/05/04 09:24:25;;;;;;;8.10;7.40;;;13.70;99.90;;;;;;5145165;27;20480;-33
2021/05/04 09:27:06;;;;;;;7.40;6.70;;;13.70;99.90;;;;;;5139193;27;20453;-33
2021/05/04 09:29:40;;;;;;;6.50;5.57;;;13.60;99.90;;;;;;5129805;27;20460;-34
2021/05/04 09:32:20;;;;;;;5.83;5.33;;;13.60;99.90;;;;;;5144470;27;20449;-33
2021/05/04 09:34:55;;;;;;;5.30;4.80;;;13.60;99.90;;;;;;5146066;27;20497;-33
2021/05/04 09:37:44;;;;;;;5.10;4.70;;;13.60;99.90;;;;;;5144339;27;20444;-33
2021/05/04 09:40:25;;;;;;;5.30;4.90;;;13.50;99.90;;;;;;5145047;27;20445;-33
2021/05/04 09:43:06;;;;;;;4.20;3.90;;;13.60;99.90;;;;;;5144080;27;20476;-33
2021/05/04 09:45:40;;;;;;;4.10;3.80;;;13.70;99.90;;;;;;5144165;27;20440;-33
2021/05/04 09:48:18;;;;;;;4.07;3.70;;;13.70;99.90;;;;;;5143516;27;20445;-33
2021/05/04 09:50:56;;;;;;;4.03;3.73;;;13.60;99.90;;;;;;5144381;27;20466;-33
2021/05/04 09:53:40;;;;;;;4.63;4.23;;;13.60;99.90;;;;;;5144412;27;20459;-33
2021/05/04 09:56:11;;;;;;;3.47;3.17;;;13.60;99.90;;;;;;5144492;27;20444;-33
2021/05/04 09:58:43;;;;;;;3.70;3.40;;;13.50;99.90;;;;;;5142991;27;20456;-33
2021/05/04 10:01:14;;;;;;;5.03;4.60;;;13.60;99.90;;;;;;5144861;27;20441;-33
2021/05/04 10:03:45;;;;;;;4.70;4.27;;;13.60;99.90;;;;;;5143889;27;20545;-33
2021/05/04 10:06:17;;;;;;;3.97;3.67;;;13.50;99.90;;;;;;5144553;27;20474;-33
2021/05/04 10:08:48;;;;;;;4.07;3.70;;;13.40;99.90;;;;;;5143747;27;20456;-33
2021/05/04 10:11:19;;;;;;;4.97;4.57;;;13.50;99.90;;;;;;5144804;27;20437;-34
2021/05/04 10:13:55;;;;;;;4.53;4.23;;;13.50;99.90;;;;;;5143889;27;20483;-33
2021/05/04 10:16:27;;;;;;;4.40;4.10;;;13.50;99.90;;;;;;5143755;27;20466;-33
2021/05/04 10:18:59;;;;;;;5.30;4.90;;;13.50;99.90;;;;;;5141800;27;20471;-33
2021/05/04 10:21:30;;;;;;;5.43;4.93;;;13.50;99.90;;;;;;5139129;27;20449;-33
2021/05/04 10:24:00;;;;;;;6.33;5.70;;;13.50;99.90;;;;;;5143894;27;20880;-33
2021/05/04 10:26:32;;;;;;;6.37;5.87;;;13.50;99.90;;;;;;5143072;27;20498;-33
2021/05/04 10:29:05;;;;;;;5.83;5.33;;;13.50;99.90;;;;;;5143581;27;20490;-33
2021/05/04 10:31:37;;;;;;;6.90;6.20;;;13.40;99.90;;;;;;5143915;27;20457;-33
2021/05/04 10:34:31;;;;;;;7.07;6.50;;;13.30;99.90;;;;;;5144051;27;20560;-33
2021/05/04 10:37:02;;;;;;;6.73;6.23;;;13.30;99.90;;;;;;5142947;27;20460;-32
2021/05/04 10:39:38;;;;;;;6.97;6.27;;;13.30;99.90;;;;;;5143581;27;20522;-32
2021/05/04 10:42:10;;;;;;;7.97;7.00;;;13.30;99.90;;;;;;5142622;27;20472;-33
2021/05/04 10:48:03;;;;;;;8.60;7.80;;;13.30;99.90;;;;;;5143887;28;20497;-33
2021/05/04 10:50:51;;;;;;;9.53;8.57;;;13.40;99.90;;;;;;5143976;28;20474;-33
2021/05/04 10:53:23;;;;;;;9.50;8.60;;;13.40;99.90;;;;;;5143258;28;20448;-33
2021/05/04 10:56:10;;;;;;;9.63;8.60;;;13.40;99.90;;;;;;5143562;28;20461;-33
2021/05/04 10:58:51;;;;;;;10.10;9.10;;;13.40;99.90;;;;;;5141868;28;20465;-33
2021/05/04 11:01:22;;;;;;;10.80;9.73;;;13.40;99.90;;;;;;5143537;28;20456;-33
2021/05/04 11:03:54;;;;;;;11.10;10.00;;;13.50;99.90;;;;;;5131741;28;20487;-33
2021/05/04 11:06:44;;;;;;;10.43;9.37;;;13.40;99.90;;;;;;5143923;28;20843;-33
2021/05/04 11:09:22;;;;;;;11.33;10.37;;;13.30;99.90;;;;;;5143792;28;20441;-33
2021/05/04 11:11:53;;;;;;;12.13;11.03;;;13.20;99.90;;;;;;5140817;28;20512;-34
2021/05/04 11:14:34;;;;;;;11.70;10.60;;;13.20;99.90;;;;;;5143533;28;20448;-33
2021/05/04 11:17:17;;;;;;;11.93;10.87;;;13.20;99.90;;;;;;5143132;28;20467;-34
2021/05/04 11:19:48;;;;;;;12.40;11.27;;;13.20;99.90;;;;;;5143460;28;20515;-33
2021/05/04 11:22:25;;;;;;;13.57;12.00;;;13.20;99.90;;;;;;5129753;28;20453;-33
2021/05/04 11:24:57;;;;;;;11.57;10.50;;;13.20;99.90;;;;;;5143226;28;20521;-33
2021/05/04 11:27:34;;;;;;;12.27;11.17;;;13.20;99.90;;;;;;5142706;28;20500;-33
2021/05/04 11:30:06;;;;;;;12.10;11.00;;;13.30;99.90;;;;;;5143070;28;20448;-33
2021/05/04 11:32:46;;;;;;;12.30;11.10;;;13.30;99.90;;;;;;5142955;28;20545;-33
2021/05/04 11:35:17;;;;;;;11.93;10.83;;;13.30;99.90;;;;;;5143622;28;20507;-33
2021/05/04 11:37:50;;;;;;;10.90;9.90;;;13.30;99.90;;;;;;5142962;28;20471;-33
2021/05/04 11:40:25;;;;;;;10.00;9.17;;;13.30;99.90;;;;;;5142940;28;20505;-33
2021/05/04 11:42:57;;;;;;;9.30;8.40;;;13.30;99.90;;;;;;5141541;28;20476;-33
2021/05/04 11:45:30;;;;;;;9.10;8.20;;;13.20;99.90;;;;;;5143618;28;20548;-33
2021/05/04 11:48:04;;;;;;;8.90;8.10;;;13.20;99.90;;;;;;5142628;28;20461;-33
2021/05/04 11:50:36;;;;;;;9.73;8.83;;;13.20;99.90;;;;;;5145938;27;20452;-33
2021/05/04 11:53:07;;;;;;;8.80;7.87;;;13.20;99.90;;;;;;5138305;27;20768;-34
2021/05/04 11:55:40;;;;;;;8.77;8.00;;;13.20;99.90;;;;;;5130654;27;20498;-33
2021/05/04 11:58:14;;;;;;;10.30;9.40;;;13.20;99.90;;;;;;5146698;27;20938;-34
2021/05/04 12:00:44;;;;;;;9.00;8.20;;;13.20;99.90;;;;;;5147354;27;20836;-34
2021/05/04 12:03:16;;;;;;;9.73;8.83;;;13.20;99.90;;;;;;5146381;27;20471;-34
2021/05/04 12:05:47;;;;;;;8.50;7.80;;;13.20;99.90;;;;;;5146690;27;20456;-33
2021/05/04 12:08:18;;;;;;;8.50;7.37;;;13.20;99.90;;;;;;5146858;27;20471;-33
2021/05/04 12:10:49;;;;;;;7.70;7.00;;;13.20;99.90;;;;;;5145573;27;20536;-34
2021/05/04 12:13:39;;;;;;;7.50;6.90;;;13.10;99.90;;;;;;5145472;27;20486;-33
2021/05/04 12:16:09;;;;;;;8.10;6.30;;;13.10;99.90;;;;;;5146986;27;20449;-34
2021/05/04 12:18:39;;;;;;;7.73;7.13;;;13.10;99.90;;;;;;5138957;27;20445;-33
2021/05/04 12:21:11;;;;;;;7.40;6.70;;;13.10;99.90;;;;;;5146118;27;20498;-34
2021/05/04 12:23:42;;;;;;;6.70;6.10;;;13.10;99.90;;;;;;5129802;27;20472;-33
2021/05/04 12:26:15;;;;;;;7.50;6.80;;;13.00;99.90;;;;;;5146841;27;20936;-34
2021/05/04 12:28:50;;;;;;;7.50;6.30;;;13.00;99.90;;;;;;5138164;27;20860;-33
2021/05/04 12:31:22;;;;;;;6.77;6.17;;;13.00;99.90;;;;;;5146424;27;20492;-34
2021/05/04 12:33:53;;;;;;;6.27;5.67;;;13.00;99.90;;;;;;5146716;27;20445;-34
2021/05/04 12:36:41;;;;;;;7.27;6.57;;;13.00;99.90;;;;;;5145817;27;20837;-34
2021/05/04 12:39:22;;;;;;;6.80;6.10;;;13.10;99.90;;;;;;5145912;27;20943;-33
2021/05/04 12:41:53;;;;;;;6.23;5.57;;;13.00;99.90;;;;;;5144466;27;20473;-33
2021/05/04 12:44:27;;;;;;;5.10;4.70;;;13.00;99.90;;;;;;5146430;27;20476;-33
2021/05/04 12:46:59;;;;;;;5.07;4.67;;;12.90;99.90;;;;;;5140785;27;20486;-33
2021/05/04 12:49:38;;;;;;;4.77;4.37;;;13.00;99.90;;;;;;5146501;27;20445;-33
2021/05/04 12:52:11;;;;;;;4.20;3.90;;;12.90;99.90;;;;;;5145673;27;20449;-33
2021/05/04 12:54:42;;;;;;;4.23;3.87;;;12.90;99.90;;;;;;5137123;27;20516;-34
2021/05/04 12:57:23;;;;;;;4.10;3.70;;;12.90;99.90;;;;;;5144932;27;20444;-33
2021/05/04 12:59:53;;;;;;;3.40;3.10;;;12.80;99.90;;;;;;5145688;27;20517;-34
2021/05/04 13:02:24;;;;;;;4.03;3.63;;;12.80;99.90;;;;;;5145662;27;20517;-33
2021/05/04 13:04:59;;;;;;;3.53;3.23;;;12.80;99.90;;;;;;5145965;27;20480;-33
2021/05/04 13:07:34;;;;;;;3.27;3.07;;;12.80;99.90;;;;;;5145352;27;20482;-34
2021/05/04 13:10:11;;;;;;;3.20;3.00;;;12.70;99.90;;;;;;5145168;27;20535;-34
2021/05/04 13:12:48;;;;;;;3.20;2.90;;;12.80;99.90;;;;;;5144634;27;20478;-34